sensor_id;sensor_type;location;lat;lon;timestamp;temperature;humidity
39825;DHT22;25503;52.532;13.640;2023-04-25T00:00:45;9.00;99.90
39825;DHT22;25503;52.532;13.640;2023-04-25T00:03:11;9.10;99.90
39825;DHT22;25503;52.532;13.640;2023-04-25T00:05:36;9.00;99.90
39825;DHT22;25503;52.532;13.640;2023-04-25T00:08:03;9.00;99.90
39825;DHT22;25503;52.532;13.640;2023-04-25T00:10:29;9.00;99.90
39825;DHT22;25503;52.532;13.640;2023-04-25T00:12:54;9.00;99.90
39825;DHT22;25503;52.532;13.640;2023-04-25T00:15:20;9.00;99.90
39825;DHT22;25503;52.532;13.640;2023-04-25T00:17:47;9.00;99.90
39825;DHT22;25503;52.532;13.640;2023-04-25T00:20:13;9.00;99.90
39825;DHT22;25503;52.532;13.640;2023-04-25T00:22:38;8.90;99.90
39825;DHT22;25503;52.532;13.640;2023-04-25T00:25:05;8.90;99.90
39825;DHT22;25503;52.532;13.640;2023-04-25T00:27:31;8.90;99.90
39825;DHT22;25503;52.532;13.640;2023-04-25T00:29:57;8.90;99.90
39825;DHT22;25503;52.532;13.640;2023-04-25T00:32:23;8.90;99.90
39825;DHT22;25503;52.532;13.640;2023-04-25T00:34:48;8.80;99.90
39825;DHT22;25503;52.532;13.640;2023-04-25T00:37:14;8.90;99.90
39825;DHT22;25503;52.532;13.640;2023-04-25T00:39:40;8.80;99.90
39825;DHT22;25503;52.532;13.640;2023-04-25T00:42:05;8.80;99.90
39825;DHT22;25503;52.532;13.640;2023-04-25T00:44:31;8.80;99.90
39825;DHT22;25503;52.532;13.640;2023-04-25T00:46:58;8.80;99.90
39825;DHT22;25503;52.532;13.640;2023-04-25T00:49:23;8.80;99.90
39825;DHT22;25503;52.532;13.640;2023-04-25T00:51:49;8.80;99.90
39825;DHT22;25503;52.532;13.640;2023-04-25T00:54:16;8.80;99.90
39825;DHT22;25503;52.532;13.640;2023-04-25T00:56:42;8.80;99.90
39825;DHT22;25503;52.532;13.640;2023-04-25T00:59:09;8.80;99.90
39825;DHT22;25503;52.532;13.640;2023-04-25T01:01:35;8.90;99.90
39825;DHT22;25503;52.532;13.640;2023-04-25T01:04:01;8.80;99.90
39825;DHT22;25503;52.532;13.640;2023-04-25T01:06:27;8.90;99.90
39825;DHT22;25503;52.532;13.640;2023-04-25T01:08:53;8.90;99.90
39825;DHT22;25503;52.532;13.640;2023-04-25T01:11:19;8.80;99.90
39825;DHT22;25503;52.532;13.640;2023-04-25T01:13:45;8.90;99.90
39825;DHT22;25503;52.532;13.640;2023-04-25T01:16:11;8.90;99.90
39825;DHT22;25503;52.532;13.640;2023-04-25T01:18:38;8.80;99.90
39825;DHT22;25503;52.532;13.640;2023-04-25T01:21:12;8.80;99.90
39825;DHT22;25503;52.532;13.640;2023-04-25T01:23:41;8.90;99.90
39825;DHT22;25503;52.532;13.640;2023-04-25T01:26:09;8.80;99.90
39825;DHT22;25503;52.532;13.640;2023-04-25T01:28:35;8.80;99.90
39825;DHT22;25503;52.532;13.640;2023-04-25T01:31:02;8.80;99.90
39825;DHT22;25503;52.532;13.640;2023-04-25T01:33:28;8.80;99.90
39825;DHT22;25503;52.532;13.640;2023-04-25T01:35:54;8.80;99.90
39825;DHT22;25503;52.532;13.640;2023-04-25T01:38:20;8.80;99.90
39825;DHT22;25503;52.532;13.640;2023-04-25T01:40:45;8.80;99.90
39825;DHT22;25503;52.532;13.640;2023-04-25T01:43:13;8.80;99.90
39825;DHT22;25503;52.532;13.640;2023-04-25T01:45:40;8.90;99.90
39825;DHT22;25503;52.532;13.640;2023-04-25T01:48:10;8.90;99.90
39825;DHT22;25503;52.532;13.640;2023-04-25T01:50:38;8.90;99.90
39825;DHT22;25503;52.532;13.640;2023-04-25T01:53:04;8.90;99.90
39825;DHT22;25503;52.532;13.640;2023-04-25T01:55:30;8.90;99.90
39825;DHT22;25503;52.532;13.640;2023-04-25T01:57:56;8.90;99.90
39825;DHT22;25503;52.532;13.640;2023-04-25T02:00:21;8.90;99.90
39825;DHT22;25503;52.532;13.640;2023-04-25T02:02:47;8.90;99.90
39825;DHT22;25503;52.532;13.640;2023-04-25T02:05:13;8.90;99.90
39825;DHT22;25503;52.532;13.640;2023-04-25T02:07:39;9.00;99.90
39825;DHT22;25503;52.532;13.640;2023-04-25T02:10:05;9.00;99.90
39825;DHT22;25503;52.532;13.640;2023-04-25T02:12:31;9.00;99.90
39825;DHT22;25503;52.532;13.640;2023-04-25T02:14:57;9.00;99.90
39825;DHT22;25503;52.532;13.640;2023-04-25T02:17:23;9.00;99.90
39825;DHT22;25503;52.532;13.640;2023-04-25T02:19:48;9.00;99.90
39825;DHT22;25503;52.532;13.640;2023-04-25T02:22:14;9.00;99.90
39825;DHT22;25503;52.532;13.640;2023-04-25T02:24:39;9.00;99.90
39825;DHT22;25503;52.532;13.640;2023-04-25T02:27:05;9.00;99.90
39825;DHT22;25503;52.532;13.640;2023-04-25T02:29:31;9.00;99.90
39825;DHT22;25503;52.532;13.640;2023-04-25T02:31:57;9.00;99.90
39825;DHT22;25503;52.532;13.640;2023-04-25T02:34:22;9.00;99.90
39825;DHT22;25503;52.532;13.640;2023-04-25T02:36:49;9.00;99.90
39825;DHT22;25503;52.532;13.640;2023-04-25T02:39:17;9.00;99.90
39825;DHT22;25503;52.532;13.640;2023-04-25T02:41:43;9.00;99.90
39825;DHT22;25503;52.532;13.640;2023-04-25T02:44:08;9.00;99.90
39825;DHT22;25503;52.532;13.640;2023-04-25T02:46:34;9.00;99.90
39825;DHT22;25503;52.532;13.640;2023-04-25T02:48:59;9.00;99.90
39825;DHT22;25503;52.532;13.640;2023-04-25T02:51:25;9.00;99.90
39825;DHT22;25503;52.532;13.640;2023-04-25T02:53:51;9.00;99.90
39825;DHT22;25503;52.532;13.640;2023-04-25T02:56:17;9.00;99.90
39825;DHT22;25503;52.532;13.640;2023-04-25T02:58:42;9.00;99.90
39825;DHT22;25503;52.532;13.640;2023-04-25T03:01:08;9.00;99.90
39825;DHT22;25503;52.532;13.640;2023-04-25T03:03:34;9.00;99.90
39825;DHT22;25503;52.532;13.640;2023-04-25T03:06:00;8.90;99.90
39825;DHT22;25503;52.532;13.640;2023-04-25T03:08:25;8.90;99.90
39825;DHT22;25503;52.532;13.640;2023-04-25T03:10:54;8.90;99.90
39825;DHT22;25503;52.532;13.640;2023-04-25T03:13:20;8.90;99.90
39825;DHT22;25503;52.532;13.640;2023-04-25T03:15:46;8.90;99.90
39825;DHT22;25503;52.532;13.640;2023-04-25T03:18:12;9.00;99.90
39825;DHT22;25503;52.532;13.640;2023-04-25T03:20:37;8.90;99.90
39825;DHT22;25503;52.532;13.640;2023-04-25T03:23:04;8.90;99.90
39825;DHT22;25503;52.532;13.640;2023-04-25T03:25:30;8.90;99.90
39825;DHT22;25503;52.532;13.640;2023-04-25T03:27:56;8.90;99.90
39825;DHT22;25503;52.532;13.640;2023-04-25T03:30:22;8.90;99.90
39825;DHT22;25503;52.532;13.640;2023-04-25T03:32:47;8.90;99.90
39825;DHT22;25503;52.532;13.640;2023-04-25T03:35:13;8.90;99.90
39825;DHT22;25503;52.532;13.640;2023-04-25T03:37:38;8.90;99.90
39825;DHT22;25503;52.532;13.640;2023-04-25T03:40:06;8.90;99.90
39825;DHT22;25503;52.532;13.640;2023-04-25T03:42:32;8.90;99.90
39825;DHT22;25503;52.532;13.640;2023-04-25T03:44:57;8.90;99.90
39825;DHT22;25503;52.532;13.640;2023-04-25T03:47:23;8.90;99.90
39825;DHT22;25503;52.532;13.640;2023-04-25T03:49:48;8.90;99.90
39825;DHT22;25503;52.532;13.640;2023-04-25T03:52:17;8.90;99.90
39825;DHT22;25503;52.532;13.640;2023-04-25T03:54:42;8.90;99.90
39825;DHT22;25503;52.532;13.640;2023-04-25T03:57:08;8.90;99.90
39825;DHT22;25503;52.532;13.640;2023-04-25T03:59:33;8.90;99.90
39825;DHT22;25503;52.532;13.640;2023-04-25T04:01:59;8.90;99.90
39825;DHT22;25503;52.532;13.640;2023-04-25T04:04:25;8.90;99.90
39825;DHT22;25503;52.532;13.640;2023-04-25T04:06:50;8.90;99.90
39825;DHT22;25503;52.532;13.640;2023-04-25T04:09:17;8.90;99.90
39825;DHT22;25503;52.532;13.640;2023-04-25T04:11:43;8.80;99.90
39825;DHT22;25503;52.532;13.640;2023-04-25T04:14:09;8.90;99.90
39825;DHT22;25503;52.532;13.640;2023-04-25T04:16:35;8.80;99.90
39825;DHT22;25503;52.532;13.640;2023-04-25T04:19:02;8.80;99.90
39825;DHT22;25503;52.532;13.640;2023-04-25T04:21:27;8.90;99.90
39825;DHT22;25503;52.532;13.640;2023-04-25T04:23:53;8.90;99.90
39825;DHT22;25503;52.532;13.640;2023-04-25T04:26:20;8.90;99.90
39825;DHT22;25503;52.532;13.640;2023-04-25T04:28:49;8.80;99.90
39825;DHT22;25503;52.532;13.640;2023-04-25T04:31:20;8.80;99.90
39825;DHT22;25503;52.532;13.640;2023-04-25T04:33:45;8.90;99.90
39825;DHT22;25503;52.532;13.640;2023-04-25T04:36:12;8.80;99.90
39825;DHT22;25503;52.532;13.640;2023-04-25T04:38:38;8.90;99.90
39825;DHT22;25503;52.532;13.640;2023-04-25T04:41:04;8.90;99.90
39825;DHT22;25503;52.532;13.640;2023-04-25T04:43:29;8.90;99.90
39825;DHT22;25503;52.532;13.640;2023-04-25T04:45:55;8.90;99.90
39825;DHT22;25503;52.532;13.640;2023-04-25T04:48:22;8.90;99.90
39825;DHT22;25503;52.532;13.640;2023-04-25T04:50:47;8.90;99.90
39825;DHT22;25503;52.532;13.640;2023-04-25T04:53:13;8.90;99.90
39825;DHT22;25503;52.532;13.640;2023-04-25T04:55:39;8.90;99.90
39825;DHT22;25503;52.532;13.640;2023-04-25T04:58:06;8.90;99.90
39825;DHT22;25503;52.532;13.640;2023-04-25T05:00:32;8.90;99.90
39825;DHT22;25503;52.532;13.640;2023-04-25T05:02:58;8.90;99.90
39825;DHT22;25503;52.532;13.640;2023-04-25T05:05:24;8.90;99.90
39825;DHT22;25503;52.532;13.640;2023-04-25T05:07:50;8.90;99.90
39825;DHT22;25503;52.532;13.640;2023-04-25T05:10:17;8.90;99.90
39825;DHT22;25503;52.532;13.640;2023-04-25T05:12:43;8.90;99.90
39825;DHT22;25503;52.532;13.640;2023-04-25T05:15:08;8.90;99.90
39825;DHT22;25503;52.532;13.640;2023-04-25T05:17:34;9.00;99.90
39825;DHT22;25503;52.532;13.640;2023-04-25T05:20:00;9.00;99.90
39825;DHT22;25503;52.532;13.640;2023-04-25T05:22:26;9.00;99.90
39825;DHT22;25503;52.532;13.640;2023-04-25T05:24:51;9.00;99.90
39825;DHT22;25503;52.532;13.640;2023-04-25T05:27:18;8.90;99.90
39825;DHT22;25503;52.532;13.640;2023-04-25T05:29:44;9.00;99.90
39825;DHT22;25503;52.532;13.640;2023-04-25T05:32:09;9.00;99.90
39825;DHT22;25503;52.532;13.640;2023-04-25T05:34:35;9.00;99.90
39825;DHT22;25503;52.532;13.640;2023-04-25T05:37:02;9.00;99.90
39825;DHT22;25503;52.532;13.640;2023-04-25T05:39:27;9.00;99.90
39825;DHT22;25503;52.532;13.640;2023-04-25T05:41:53;9.00;99.90
39825;DHT22;25503;52.532;13.640;2023-04-25T05:44:19;9.00;99.90
39825;DHT22;25503;52.532;13.640;2023-04-25T05:46:44;9.00;99.90
39825;DHT22;25503;52.532;13.640;2023-04-25T05:49:10;9.10;99.90
39825;DHT22;25503;52.532;13.640;2023-04-25T05:51:36;9.00;99.90
39825;DHT22;25503;52.532;13.640;2023-04-25T05:54:01;9.10;99.90
39825;DHT22;25503;52.532;13.640;2023-04-25T05:56:27;9.10;99.90
39825;DHT22;25503;52.532;13.640;2023-04-25T05:58:52;9.10;99.90
39825;DHT22;25503;52.532;13.640;2023-04-25T06:01:18;9.10;99.90
39825;DHT22;25503;52.532;13.640;2023-04-25T06:03:44;9.10;99.90
39825;DHT22;25503;52.532;13.640;2023-04-25T06:06:11;9.10;99.90
39825;DHT22;25503;52.532;13.640;2023-04-25T06:08:36;9.20;99.90
39825;DHT22;25503;52.532;13.640;2023-04-25T06:11:03;9.20;99.90
39825;DHT22;25503;52.532;13.640;2023-04-25T06:13:28;9.20;99.90
39825;DHT22;25503;52.532;13.640;2023-04-25T06:15:54;9.20;99.90
39825;DHT22;25503;52.532;13.640;2023-04-25T06:18:19;9.20;99.90
39825;DHT22;25503;52.532;13.640;2023-04-25T06:20:45;9.20;99.90
39825;DHT22;25503;52.532;13.640;2023-04-25T06:23:11;9.20;99.90
39825;DHT22;25503;52.532;13.640;2023-04-25T06:25:36;9.20;99.90
39825;DHT22;25503;52.532;13.640;2023-04-25T06:28:02;9.20;99.90
39825;DHT22;25503;52.532;13.640;2023-04-25T06:30:28;9.20;99.90
39825;DHT22;25503;52.532;13.640;2023-04-25T06:32:53;9.10;99.90
39825;DHT22;25503;52.532;13.640;2023-04-25T06:35:19;9.20;99.90
39825;DHT22;25503;52.532;13.640;2023-04-25T06:37:45;9.10;99.90
39825;DHT22;25503;52.532;13.640;2023-04-25T06:40:10;9.10;99.90
39825;DHT22;25503;52.532;13.640;2023-04-25T06:42:36;9.10;99.90
39825;DHT22;25503;52.532;13.640;2023-04-25T06:45:02;9.10;99.90
39825;DHT22;25503;52.532;13.640;2023-04-25T06:47:28;9.20;99.90
39825;DHT22;25503;52.532;13.640;2023-04-25T06:49:55;9.20;99.90
39825;DHT22;25503;52.532;13.640;2023-04-25T06:52:21;9.20;99.90
39825;DHT22;25503;52.532;13.640;2023-04-25T06:54:46;9.20;99.90
39825;DHT22;25503;52.532;13.640;2023-04-25T06:57:12;9.20;99.90
39825;DHT22;25503;52.532;13.640;2023-04-25T06:59:39;9.30;99.90
39825;DHT22;25503;52.532;13.640;2023-04-25T07:02:05;9.30;99.90
39825;DHT22;25503;52.532;13.640;2023-04-25T07:04:31;9.20;99.90
39825;DHT22;25503;52.532;13.640;2023-04-25T07:06:57;9.30;99.90
39825;DHT22;25503;52.532;13.640;2023-04-25T07:09:23;9.30;99.90
39825;DHT22;25503;52.532;13.640;2023-04-25T07:11:48;9.30;99.90
39825;DHT22;25503;52.532;13.640;2023-04-25T07:14:14;9.30;99.90
39825;DHT22;25503;52.532;13.640;2023-04-25T07:16:40;9.30;99.90
39825;DHT22;25503;52.532;13.640;2023-04-25T07:19:06;9.30;99.90
39825;DHT22;25503;52.532;13.640;2023-04-25T07:21:32;9.30;99.90
39825;DHT22;25503;52.532;13.640;2023-04-25T07:23:58;9.30;99.90
39825;DHT22;25503;52.532;13.640;2023-04-25T07:26:23;9.30;99.90
39825;DHT22;25503;52.532;13.640;2023-04-25T07:28:49;9.40;99.90
39825;DHT22;25503;52.532;13.640;2023-04-25T07:31:17;9.30;99.90
39825;DHT22;25503;52.532;13.640;2023-04-25T07:33:44;9.30;99.90
39825;DHT22;25503;52.532;13.640;2023-04-25T07:36:11;9.30;99.90
39825;DHT22;25503;52.532;13.640;2023-04-25T07:38:38;9.30;99.90
39825;DHT22;25503;52.532;13.640;2023-04-25T07:41:04;9.20;99.90
39825;DHT22;25503;52.532;13.640;2023-04-25T07:43:29;9.20;99.90
39825;DHT22;25503;52.532;13.640;2023-04-25T07:45:56;9.20;99.90
39825;DHT22;25503;52.532;13.640;2023-04-25T07:48:22;9.20;99.90
39825;DHT22;25503;52.532;13.640;2023-04-25T07:50:48;9.20;99.90
39825;DHT22;25503;52.532;13.640;2023-04-25T07:53:13;9.10;99.90
39825;DHT22;25503;52.532;13.640;2023-04-25T07:55:39;9.10;99.90
39825;DHT22;25503;52.532;13.640;2023-04-25T07:58:06;9.20;99.90
39825;DHT22;25503;52.532;13.640;2023-04-25T08:00:32;9.20;99.90
39825;DHT22;25503;52.532;13.640;2023-04-25T08:02:58;9.30;99.90
39825;DHT22;25503;52.532;13.640;2023-04-25T08:05:24;9.40;99.90
39825;DHT22;25503;52.532;13.640;2023-04-25T08:07:50;9.50;99.90
39825;DHT22;25503;52.532;13.640;2023-04-25T08:10:16;9.50;99.90
39825;DHT22;25503;52.532;13.640;2023-04-25T08:12:41;9.50;99.90
39825;DHT22;25503;52.532;13.640;2023-04-25T08:15:07;9.50;99.90
39825;DHT22;25503;52.532;13.640;2023-04-25T08:17:33;9.40;99.90
39825;DHT22;25503;52.532;13.640;2023-04-25T08:19:59;9.50;99.90
39825;DHT22;25503;52.532;13.640;2023-04-25T08:22:24;9.50;99.90
39825;DHT22;25503;52.532;13.640;2023-04-25T08:24:50;9.50;99.90
39825;DHT22;25503;52.532;13.640;2023-04-25T08:27:16;9.60;99.90
39825;DHT22;25503;52.532;13.640;2023-04-25T08:29:42;9.60;99.90
39825;DHT22;25503;52.532;13.640;2023-04-25T08:32:07;9.60;99.90
39825;DHT22;25503;52.532;13.640;2023-04-25T08:34:33;9.70;99.90
39825;DHT22;25503;52.532;13.640;2023-04-25T08:36:59;9.80;99.90
39825;DHT22;25503;52.532;13.640;2023-04-25T08:39:24;9.90;99.90
39825;DHT22;25503;52.532;13.640;2023-04-25T08:41:50;10.00;99.90
39825;DHT22;25503;52.532;13.640;2023-04-25T08:44:16;10.00;99.90
39825;DHT22;25503;52.532;13.640;2023-04-25T08:46:42;10.10;99.90
39825;DHT22;25503;52.532;13.640;2023-04-25T08:49:12;10.10;99.90
39825;DHT22;25503;52.532;13.640;2023-04-25T08:51:45;10.10;99.90
39825;DHT22;25503;52.532;13.640;2023-04-25T08:54:13;10.10;99.90
39825;DHT22;25503;52.532;13.640;2023-04-25T08:56:41;10.30;99.90
39825;DHT22;25503;52.532;13.640;2023-04-25T08:59:09;10.30;99.90
39825;DHT22;25503;52.532;13.640;2023-04-25T09:01:34;10.40;99.90
39825;DHT22;25503;52.532;13.640;2023-04-25T09:04:03;10.50;99.90
39825;DHT22;25503;52.532;13.640;2023-04-25T09:06:29;10.50;99.90
39825;DHT22;25503;52.532;13.640;2023-04-25T09:09:02;10.50;99.90
39825;DHT22;25503;52.532;13.640;2023-04-25T09:11:29;10.40;99.90
39825;DHT22;25503;52.532;13.640;2023-04-25T09:14:14;10.40;99.90
39825;DHT22;25503;52.532;13.640;2023-04-25T09:19:22;10.50;99.90
39825;DHT22;25503;52.532;13.640;2023-04-25T09:21:54;10.50;99.90
39825;DHT22;25503;52.532;13.640;2023-04-25T09:24:39;10.60;99.90
39825;DHT22;25503;52.532;13.640;2023-04-25T09:27:09;10.70;99.90
39825;DHT22;25503;52.532;13.640;2023-04-25T09:29:36;10.80;99.90
39825;DHT22;25503;52.532;13.640;2023-04-25T09:34:46;10.90;99.90
39825;DHT22;25503;52.532;13.640;2023-04-25T09:37:17;11.00;99.90
39825;DHT22;25503;52.532;13.640;2023-04-25T09:39:45;11.20;99.90
39825;DHT22;25503;52.532;13.640;2023-04-25T09:42:12;11.50;99.90
39825;DHT22;25503;52.532;13.640;2023-04-25T09:44:45;11.90;99.90
39825;DHT22;25503;52.532;13.640;2023-04-25T09:47:15;12.00;99.90
39825;DHT22;25503;52.532;13.640;2023-04-25T09:49:42;12.10;99.90
39825;DHT22;25503;52.532;13.640;2023-04-25T09:52:09;12.20;99.90
39825;DHT22;25503;52.532;13.640;2023-04-25T09:54:34;12.20;99.90
39825;DHT22;25503;52.532;13.640;2023-04-25T09:57:19;12.30;99.90
39825;DHT22;25503;52.532;13.640;2023-04-25T09:59:50;12.30;99.90
39825;DHT22;25503;52.532;13.640;2023-04-25T10:02:19;12.50;99.90
39825;DHT22;25503;52.532;13.640;2023-04-25T10:04:48;12.60;99.90
39825;DHT22;25503;52.532;13.640;2023-04-25T10:07:15;12.60;99.90
39825;DHT22;25503;52.532;13.640;2023-04-25T10:09:43;12.70;99.90
39825;DHT22;25503;52.532;13.640;2023-04-25T10:12:11;12.60;99.90
39825;DHT22;25503;52.532;13.640;2023-04-25T10:14:36;12.60;99.90
39825;DHT22;25503;52.532;13.640;2023-04-25T10:17:03;12.60;99.90
39825;DHT22;25503;52.532;13.640;2023-04-25T10:19:28;12.60;99.90
39825;DHT22;25503;52.532;13.640;2023-04-25T10:22:11;12.50;99.90
39825;DHT22;25503;52.532;13.640;2023-04-25T10:24:39;12.40;99.90
39825;DHT22;25503;52.532;13.640;2023-04-25T10:27:05;12.30;99.90
39825;DHT22;25503;52.532;13.640;2023-04-25T10:29:31;12.30;99.90
39825;DHT22;25503;52.532;13.640;2023-04-25T10:31:57;12.30;99.90
39825;DHT22;25503;52.532;13.640;2023-04-25T10:34:40;12.30;99.90
39825;DHT22;25503;52.532;13.640;2023-04-25T10:37:09;12.30;99.90
39825;DHT22;25503;52.532;13.640;2023-04-25T10:39:35;12.20;99.90
39825;DHT22;25503;52.532;13.640;2023-04-25T10:42:02;12.10;99.90
39825;DHT22;25503;52.532;13.640;2023-04-25T10:44:29;12.10;99.90
39825;DHT22;25503;52.532;13.640;2023-04-25T10:46:56;12.00;99.90
39825;DHT22;25503;52.532;13.640;2023-04-25T10:49:42;11.90;99.90
39825;DHT22;25503;52.532;13.640;2023-04-25T10:52:18;11.90;99.90
39825;DHT22;25503;52.532;13.640;2023-04-25T10:54:52;11.90;99.90
39825;DHT22;25503;52.532;13.640;2023-04-25T10:57:37;11.80;99.90
39825;DHT22;25503;52.532;13.640;2023-04-25T11:02:30;11.60;99.90
39825;DHT22;25503;52.532;13.640;2023-04-25T11:04:56;11.50;99.90
39825;DHT22;25503;52.532;13.640;2023-04-25T11:07:49;11.50;99.90
39825;DHT22;25503;52.532;13.640;2023-04-25T11:10:16;11.60;99.90
39825;DHT22;25503;52.532;13.640;2023-04-25T11:12:41;11.50;99.90
39825;DHT22;25503;52.532;13.640;2023-04-25T11:15:08;11.60;99.90
39825;DHT22;25503;52.532;13.640;2023-04-25T11:17:34;11.50;99.90
39825;DHT22;25503;52.532;13.640;2023-04-25T11:20:00;11.60;99.90
39825;DHT22;25503;52.532;13.640;2023-04-25T11:22:27;11.70;99.90
39825;DHT22;25503;52.532;13.640;2023-04-25T11:24:53;11.70;99.90
39825;DHT22;25503;52.532;13.640;2023-04-25T11:27:19;11.80;99.90
39825;DHT22;25503;52.532;13.640;2023-04-25T11:29:47;11.80;99.90
39825;DHT22;25503;52.532;13.640;2023-04-25T11:32:15;11.80;99.90
39825;DHT22;25503;52.532;13.640;2023-04-25T11:34:43;11.80;99.90
39825;DHT22;25503;52.532;13.640;2023-04-25T11:37:09;11.70;99.90
39825;DHT22;25503;52.532;13.640;2023-04-25T11:39:37;11.60;99.90
39825;DHT22;25503;52.532;13.640;2023-04-25T11:42:04;11.50;99.90
39825;DHT22;25503;52.532;13.640;2023-04-25T11:44:31;11.30;99.90
39825;DHT22;25503;52.532;13.640;2023-04-25T11:46:56;11.10;99.90
39825;DHT22;25503;52.532;13.640;2023-04-25T11:49:22;11.00;99.90
39825;DHT22;25503;52.532;13.640;2023-04-25T11:51:50;10.90;99.90
39825;DHT22;25503;52.532;13.640;2023-04-25T11:54:16;10.90;99.90
39825;DHT22;25503;52.532;13.640;2023-04-25T11:56:43;10.90;99.90
39825;DHT22;25503;52.532;13.640;2023-04-25T11:59:09;10.80;99.90
39825;DHT22;25503;52.532;13.640;2023-04-25T12:01:39;10.90;99.90
39825;DHT22;25503;52.532;13.640;2023-04-25T12:04:17;10.80;99.90
39825;DHT22;25503;52.532;13.640;2023-04-25T12:06:44;10.70;99.90
39825;DHT22;25503;52.532;13.640;2023-04-25T12:09:13;10.80;99.90
39825;DHT22;25503;52.532;13.640;2023-04-25T12:11:43;10.70;99.90
39825;DHT22;25503;52.532;13.640;2023-04-25T12:14:10;10.80;99.90
39825;DHT22;25503;52.532;13.640;2023-04-25T12:16:44;10.80;99.90
39825;DHT22;25503;52.532;13.640;2023-04-25T12:19:09;10.90;99.90
39825;DHT22;25503;52.532;13.640;2023-04-25T12:21:35;11.00;99.90
39825;DHT22;25503;52.532;13.640;2023-04-25T12:24:13;11.10;99.90
39825;DHT22;25503;52.532;13.640;2023-04-25T12:27:01;11.10;99.90
39825;DHT22;25503;52.532;13.640;2023-04-25T12:29:29;11.10;99.90
39825;DHT22;25503;52.532;13.640;2023-04-25T12:31:56;11.10;99.90
39825;DHT22;25503;52.532;13.640;2023-04-25T12:34:22;11.10;99.90
39825;DHT22;25503;52.532;13.640;2023-04-25T12:36:51;11.10;99.90
39825;DHT22;25503;52.532;13.640;2023-04-25T12:39:22;11.10;99.90
39825;DHT22;25503;52.532;13.640;2023-04-25T12:41:49;11.00;99.90
39825;DHT22;25503;52.532;13.640;2023-04-25T12:44:15;11.00;99.90
39825;DHT22;25503;52.532;13.640;2023-04-25T12:46:40;10.90;99.90
39825;DHT22;25503;52.532;13.640;2023-04-25T12:49:07;10.80;99.90
39825;DHT22;25503;52.532;13.640;2023-04-25T12:51:34;10.80;99.90
39825;DHT22;25503;52.532;13.640;2023-04-25T12:54:00;10.80;99.90
39825;DHT22;25503;52.532;13.640;2023-04-25T12:56:27;10.90;99.90
39825;DHT22;25503;52.532;13.640;2023-04-25T12:58:53;11.10;99.90
39825;DHT22;25503;52.532;13.640;2023-04-25T13:01:19;11.40;99.90
39825;DHT22;25503;52.532;13.640;2023-04-25T13:03:45;11.50;99.90
39825;DHT22;25503;52.532;13.640;2023-04-25T13:06:11;11.60;99.90
39825;DHT22;25503;52.532;13.640;2023-04-25T13:08:38;11.60;99.90
39825;DHT22;25503;52.532;13.640;2023-04-25T13:11:05;11.50;99.90
39825;DHT22;25503;52.532;13.640;2023-04-25T13:13:30;11.50;99.90
39825;DHT22;25503;52.532;13.640;2023-04-25T13:15:57;11.50;99.90
39825;DHT22;25503;52.532;13.640;2023-04-25T13:18:23;11.60;99.90
39825;DHT22;25503;52.532;13.640;2023-04-25T13:20:52;11.60;99.90
39825;DHT22;25503;52.532;13.640;2023-04-25T13:23:18;11.60;99.90
39825;DHT22;25503;52.532;13.640;2023-04-25T13:25:44;11.60;99.90
39825;DHT22;25503;52.532;13.640;2023-04-25T13:28:10;11.60;99.90
39825;DHT22;25503;52.532;13.640;2023-04-25T13:30:36;11.90;99.90
39825;DHT22;25503;52.532;13.640;2023-04-25T13:33:02;12.10;99.90
39825;DHT22;25503;52.532;13.640;2023-04-25T13:35:32;12.40;99.90
39825;DHT22;25503;52.532;13.640;2023-04-25T13:37:58;12.70;99.90
39825;DHT22;25503;52.532;13.640;2023-04-25T13:40:24;12.70;99.90
39825;DHT22;25503;52.532;13.640;2023-04-25T13:42:49;12.60;99.90
39825;DHT22;25503;52.532;13.640;2023-04-25T13:45:16;12.50;99.90
39825;DHT22;25503;52.532;13.640;2023-04-25T13:47:42;12.30;99.90
39825;DHT22;25503;52.532;13.640;2023-04-25T13:50:07;12.10;99.90
39825;DHT22;25503;52.532;13.640;2023-04-25T13:52:33;12.00;99.90
39825;DHT22;25503;52.532;13.640;2023-04-25T13:54:59;11.80;99.90
39825;DHT22;25503;52.532;13.640;2023-04-25T13:57:25;11.70;99.90
39825;DHT22;25503;52.532;13.640;2023-04-25T13:59:51;11.50;99.90
39825;DHT22;25503;52.532;13.640;2023-04-25T14:02:17;11.30;99.90
39825;DHT22;25503;52.532;13.640;2023-04-25T14:04:43;11.10;99.90
39825;DHT22;25503;52.532;13.640;2023-04-25T14:07:09;11.00;99.90
39825;DHT22;25503;52.532;13.640;2023-04-25T14:09:36;11.00;99.90
39825;DHT22;25503;52.532;13.640;2023-04-25T14:12:02;10.90;99.90
39825;DHT22;25503;52.532;13.640;2023-04-25T14:14:27;10.80;99.90
39825;DHT22;25503;52.532;13.640;2023-04-25T14:16:53;10.80;99.90
39825;DHT22;25503;52.532;13.640;2023-04-25T14:19:22;10.90;99.90
39825;DHT22;25503;52.532;13.640;2023-04-25T14:21:49;11.00;99.90
39825;DHT22;25503;52.532;13.640;2023-04-25T14:24:14;11.10;99.90
39825;DHT22;25503;52.532;13.640;2023-04-25T14:26:41;11.20;99.90
39825;DHT22;25503;52.532;13.640;2023-04-25T14:29:07;11.30;99.90
39825;DHT22;25503;52.532;13.640;2023-04-25T14:31:34;11.40;99.90
39825;DHT22;25503;52.532;13.640;2023-04-25T14:34:01;11.40;99.90
39825;DHT22;25503;52.532;13.640;2023-04-25T14:36:28;11.40;99.90
39825;DHT22;25503;52.532;13.640;2023-04-25T14:38:54;11.20;99.90
39825;DHT22;25503;52.532;13.640;2023-04-25T14:41:20;11.10;99.90
39825;DHT22;25503;52.532;13.640;2023-04-25T14:43:46;11.00;99.90
39825;DHT22;25503;52.532;13.640;2023-04-25T14:46:12;10.90;99.90
39825;DHT22;25503;52.532;13.640;2023-04-25T14:48:38;10.90;99.90
39825;DHT22;25503;52.532;13.640;2023-04-25T14:51:04;11.00;99.90
39825;DHT22;25503;52.532;13.640;2023-04-25T14:53:30;11.00;99.90
39825;DHT22;25503;52.532;13.640;2023-04-25T14:55:56;11.00;99.90
39825;DHT22;25503;52.532;13.640;2023-04-25T14:58:21;11.00;99.90
39825;DHT22;25503;52.532;13.640;2023-04-25T15:00:48;10.90;99.90
39825;DHT22;25503;52.532;13.640;2023-04-25T15:03:14;10.80;99.90
39825;DHT22;25503;52.532;13.640;2023-04-25T15:05:42;10.80;99.90
39825;DHT22;25503;52.532;13.640;2023-04-25T15:08:07;10.80;99.90
39825;DHT22;25503;52.532;13.640;2023-04-25T15:10:33;10.70;99.90
39825;DHT22;25503;52.532;13.640;2023-04-25T15:12:59;10.70;99.90
39825;DHT22;25503;52.532;13.640;2023-04-25T15:15:25;10.70;99.90
39825;DHT22;25503;52.532;13.640;2023-04-25T15:17:52;10.70;99.90
39825;DHT22;25503;52.532;13.640;2023-04-25T15:20:19;10.60;99.90
39825;DHT22;25503;52.532;13.640;2023-04-25T15:22:45;10.60;99.90
39825;DHT22;25503;52.532;13.640;2023-04-25T15:25:11;10.50;99.90
39825;DHT22;25503;52.532;13.640;2023-04-25T15:27:38;10.50;99.90
39825;DHT22;25503;52.532;13.640;2023-04-25T15:30:07;10.40;99.90